European Seaway — MPDG3 — position and weather

sailwx.info

Track history (hours):
 
Tides and Currents Weather Stations Pressure Air Temp Water Temp Dewpoint Dewpoint Depression Visibility Wind Speed Wind Dir Waves Ship Positions

European Seaway

Operator: P & O Ferries

Last reported at 2016-Jun-29 14:33 UTC. Time now 2016-Jun-29 14:44 UTC.
Position N 50°58' E 001°51'.

Length 179 m; draft 6.1 m.

Type: Passenger vessel. MMSI: 232001040.

Date/timePositionNaut miles runAvg speedWind from/ knotsBaromVisibWave heightAir tempDewpointWater temp
2016-Jun-29 14:33N 50°58' E 001°51'6 5.9
2016-Jun-29 13:33N 50°58' E 001°42'1616.2
2016-Jun-29 12:33N 51°07' E 001°20'0 0.0
2016-Jun-29 11:33N 51°07' E 001°20'1515.0
2016-Jun-29 10:34N 50°60' E 001°40'7 7.3
2016-Jun-29 09:33N 50°58' E 001°52'0 0.0
2016-Jun-29 08:34N 50°58' E 001°52'0 0.0
2016-Jun-29 07:33N 50°58' E 001°52'0 0.0
2016-Jun-29 06:33N 50°58' E 001°52'0 0.0
2016-Jun-29 05:33N 50°58' E 001°52'0 0.0
2016-Jun-29 04:33N 50°58' E 001°52'0 0.0
2016-Jun-29 03:33N 50°58' E 001°52'0 0.0
2016-Jun-29 02:33N 50°58' E 001°52'0 0.0
2016-Jun-29 01:33N 50°58' E 001°52'0 0.0
2016-Jun-29 00:33N 50°58' E 001°52'0 0.0
2016-Jun-28 23:33N 50°58' E 001°52'0 0.0
2016-Jun-28 22:33N 50°58' E 001°52'0 0.0
2016-Jun-28 21:33N 50°58' E 001°52'0 0.0
2016-Jun-28 20:33N 50°58' E 001°52'0 0.0
2016-Jun-28 19:33N 50°58' E 001°52'0 0.0
2016-Jun-28 18:33N 50°58' E 001°52'0 0.0
2016-Jun-28 17:33N 50°58' E 001°52'5 5.3
2016-Jun-28 16:34N 50°58' E 001°43'1717.0
2016-Jun-28 15:33N 51°07' E 001°20'0 0.2
2016-Jun-28 14:32N 51°07' E 001°20'1616.8
2016-Jun-28 13:33N 50°59' E 001°43'5 5.3
2016-Jun-28 12:33N 50°58' E 001°51'1111.4
2016-Jun-28 11:34N 51°01' E 001°33'1110.7
2016-Jun-28 10:33N 51°07' E 001°20'3 2.9
2016-Jun-28 09:34N 51°07' E 001°24'1818.0
2016-Jun-28 08:34N 50°58' E 001°50'21 1.2
2016-Jun-27 15:33N 51°07' E 001°20'0 0.2
2016-Jun-27 14:33N 51°07' E 001°20'1515.5
2016-Jun-27 13:34N 50°60' E 001°41'7 6.7
2016-Jun-27 12:33N 50°58' E 001°52'0 0.0
2016-Jun-27 11:34N 50°58' E 001°52'0 0.0
2016-Jun-27 10:34N 50°58' E 001°52'0 0.0
2016-Jun-27 09:33N 50°58' E 001°52'0 0.0
2016-Jun-27 08:33N 50°58' E 001°52'0 0.0
2016-Jun-27 07:33N 50°58' E 001°52'0 0.0
2016-Jun-27 06:34N 50°58' E 001°52'0 0.0
2016-Jun-27 05:33N 50°58' E 001°52'0 0.0
2016-Jun-27 04:33N 50°58' E 001°52'0 0.0
2016-Jun-27 03:33N 50°58' E 001°52'0 0.0
2016-Jun-27 02:33N 50°58' E 001°52'0 0.0
2016-Jun-27 01:34N 50°58' E 001°52'0 0.0
2016-Jun-27 00:33N 50°58' E 001°52'0 0.0
2016-Jun-26 23:34N 50°58' E 001°52'0 0.0
2016-Jun-26 22:34N 50°58' E 001°52'0 0.0
2016-Jun-26 21:34N 50°58' E 001°52'0 0.0
2016-Jun-26 20:34N 50°58' E 001°52'0 0.0
2016-Jun-26 19:33N 50°58' E 001°52'0 0.0
2016-Jun-26 18:34N 50°58' E 001°52'0 0.0
2016-Jun-26 17:34N 50°58' E 001°52'3 2.6
2016-Jun-26 16:34N 50°58' E 001°48'1918.9
2016-Jun-26 15:33N 51°07' E 001°21'1 0.7
2016-Jun-26 14:33N 51°07' E 001°20'1414.3
2016-Jun-26 13:33N 51°01' E 001°40'7 7.3
2016-Jun-26 12:33N 50°58' E 001°51'1 0.7
2016-Jun-26 11:33N 50°58' E 001°52'0 0.0
2016-Jun-26 10:33N 50°58' E 001°52'0 0.0
2016-Jun-26 09:33N 50°58' E 001°52'0 0.0
2016-Jun-26 08:33N 50°58' E 001°52'0 0.0
2016-Jun-26 07:33N 50°58' E 001°52'0 0.0
2016-Jun-26 06:33N 50°58' E 001°52'0 0.0
2016-Jun-26 05:33N 50°58' E 001°52'0 0.0
2016-Jun-26 04:33N 50°58' E 001°52'0 0.0
2016-Jun-26 03:33N 50°58' E 001°52'0 0.0
2016-Jun-26 02:33N 50°58' E 001°52'0 0.0
2016-Jun-26 01:33N 50°58' E 001°52'0 0.0
2016-Jun-26 00:33N 50°58' E 001°52'0 0.0
2016-Jun-25 23:33N 50°58' E 001°52'0 0.0
2016-Jun-25 22:33N 50°58' E 001°52'0 0.0
2016-Jun-25 21:33N 50°58' E 001°52'0 0.0
2016-Jun-25 20:33N 50°58' E 001°52'0 0.0
2016-Jun-25 19:33N 50°58' E 001°52'0 0.0
2016-Jun-25 18:33N 50°58' E 001°52'0 0.0
2016-Jun-25 17:33N 50°58' E 001°52'2 2.5
2016-Jun-25 16:33N 50°58' E 001°48'1918.7
2016-Jun-25 15:33N 51°07' E 001°22'1 1.0
2016-Jun-25 14:33N 51°07' E 001°20'1716.7
2016-Jun-25 13:33N 50°59' E 001°43'5 4.9
2016-Jun-25 12:33N 50°58' E 001°51'9 8.7
2016-Jun-25 11:33N 50°60' E 001°37'1313.3
2016-Jun-25 10:33N 51°07' E 001°20'1 0.5
2016-Jun-25 09:33N 51°07' E 001°21'1818.0
2016-Jun-25 08:34N 50°58' E 001°45'4 4.0
2016-Jun-25 07:33N 50°58' E 001°52'0 0.0
2016-Jun-25 06:33N 50°58' E 001°52'0 0.0
2016-Jun-25 05:33N 50°58' E 001°52'0 0.0
2016-Jun-25 04:34N 50°58' E 001°52'0 0.0
2016-Jun-25 03:34N 50°58' E 001°52'0 0.0
2016-Jun-25 02:34N 50°58' E 001°52'0 0.0
2016-Jun-25 01:34N 50°58' E 001°52'0 0.0
2016-Jun-25 00:33N 50°58' E 001°52'0 0.0
2016-Jun-24 23:33N 50°58' E 001°52'0 0.0
2016-Jun-24 22:33N 50°58' E 001°52'0 0.0
2016-Jun-24 21:33N 50°58' E 001°52'0 0.0
2016-Jun-24 20:33N 50°58' E 001°52'0 0.0
2016-Jun-24 19:33N 50°58' E 001°52'0 0.0
2016-Jun-24 18:33N 50°58' E 001°52'0 0.0
2016-Jun-24 17:34N 50°58' E 001°52'1 1.0
2016-Jun-24 16:33N 50°58' E 001°50'1817.8
2016-Jun-24 15:33N 51°05' E 001°24'3 3.2
2016-Jun-24 14:32N 51°07' E 001°20'1313.1
2016-Jun-24 13:33N 51°01' E 001°37'9 9.1
2016-Jun-24 12:33N 50°58' E 001°51'9 9.2
2016-Jun-24 11:33N 50°58' E 001°36'1413.8
2016-Jun-24 10:33N 51°07' E 001°20'2 1.7
2016-Jun-24 09:33N 51°07' E 001°23'1818.3
2016-Jun-24 08:33N 50°58' E 001°48'2 1.9
2016-Jun-24 07:29N 50°58' E 001°52'0 0.0
2016-Jun-24 04:31N 50°58' E 001°52'0 0.0
2016-Jun-24 03:31N 50°58' E 001°52'0 0.0
2016-Jun-24 02:28N 50°58' E 001°52'0 0.0
2016-Jun-24 01:31N 50°58' E 001°52'0 0.0
2016-Jun-24 00:28N 50°58' E 001°52'0 0.0
2016-Jun-23 23:31N 50°58' E 001°52'0 0.0
2016-Jun-23 22:31N 50°58' E 001°52'0 0.0
2016-Jun-23 21:31N 50°58' E 001°52'0 0.0
2016-Jun-23 20:28N 50°58' E 001°52'0 0.0
2016-Jun-23 19:32N 50°58' E 001°52'0 0.0
2016-Jun-23 18:31N 50°58' E 001°52'0 0.0
2016-Jun-23 17:33N 50°58' E 001°52'9 9.1
2016-Jun-23 16:34N 50°60' E 001°38'1313.3
2016-Jun-23 15:33N 51°07' E 001°20'3 3.1
2016-Jun-23 14:34N 51°07' E 001°25'1616.4
2016-Jun-23 13:33N 50°58' E 001°47'2 2.4
2016-Jun-23 12:33N 50°58' E 001°51'7 7.5
2016-Jun-23 11:33N 50°59' E 001°39'1514.5
2016-Jun-23 10:33N 51°07' E 001°20'5 5.1
2016-Jun-23 09:33N 51°05' E 001°27'1616.4
2016-Jun-23 08:34N 50°58' E 001°51'0 0.4
2016-Jun-23 07:31N 50°58' E 001°52'0 0.0
2016-Jun-23 05:31N 50°58' E 001°52'0 0.0
2016-Jun-23 04:25N 50°58' E 001°52'0 0.0
2016-Jun-23 03:31N 50°58' E 001°52'0 0.0
2016-Jun-23 02:31N 50°58' E 001°52'0 0.0
2016-Jun-23 01:31N 50°58' E 001°52'0 0.0
2016-Jun-23 00:28N 50°58' E 001°52'0 0.0
2016-Jun-22 23:31N 50°58' E 001°52'0 0.0
2016-Jun-22 22:31N 50°58' E 001°52'0 0.0
2016-Jun-22 21:34N 50°58' E 001°52'0 0.0
2016-Jun-22 20:33N 50°58' E 001°52'22 5.3
2016-Jun-22 16:26N 51°07' E 001°20'1314.3
2016-Jun-22 15:33N 51°00' E 001°37'13 0.4
2016-Jun-21 10:33N 51°07' E 001°20'3 3.3
2016-Jun-21 09:33N 51°06' E 001°25'1817.8
2016-Jun-21 08:33N 50°58' E 001°50'1 0.8
2016-Jun-21 07:33N 50°58' E 001°52'0 0.0
2016-Jun-21 05:33N 50°58' E 001°52'0 0.0
2016-Jun-21 04:33N 50°58' E 001°52'0 0.0
2016-Jun-21 03:33N 50°58' E 001°52'0 0.0
2016-Jun-21 02:33N 50°58' E 001°52'0 0.0
2016-Jun-21 01:33N 50°58' E 001°52'0 0.0
2016-Jun-21 00:33N 50°58' E 001°52'0 0.0
2016-Jun-20 23:33N 50°58' E 001°52'0 0.0
2016-Jun-20 22:33N 50°58' E 001°52'0 0.0
2016-Jun-20 21:33N 50°58' E 001°52'0 0.0
2016-Jun-20 20:33N 50°58' E 001°52'0 0.0
2016-Jun-20 19:33N 50°58' E 001°52'0 0.0
2016-Jun-20 18:33N 50°58' E 001°52'1 0.1
2016-Jun-20 08:20N 50°58' E 001°51'1 0.7
2016-Jun-20 07:34N 50°58' E 001°52'0 0.1
2016-Jun-20 06:33N 50°58' E 001°52'0 0.0
2016-Jun-20 05:33N 50°58' E 001°52'0 0.0
2016-Jun-20 04:33N 50°58' E 001°52'0 0.0
2016-Jun-20 03:34N 50°58' E 001°52'0 0.0
2016-Jun-20 02:34N 50°58' E 001°52'0 0.0
2016-Jun-20 01:34N 50°58' E 001°52'0 0.0
2016-Jun-20 00:34N 50°58' E 001°52'0 0.0
2016-Jun-19 23:33N 50°58' E 001°52'0 0.0
2016-Jun-19 22:33N 50°58' E 001°52'0 0.0
2016-Jun-19 21:33N 50°58' E 001°52'0 0.0
2016-Jun-19 20:34N 50°58' E 001°52'0 0.0
2016-Jun-19 19:34N 50°58' E 001°52'0 0.0
2016-Jun-19 18:34N 50°58' E 001°52'0 0.0
2016-Jun-19 17:34N 50°58' E 001°52'0 0.1
2016-Jun-19 16:33N 50°58' E 001°52'1413.8
2016-Jun-19 15:34N 51°02' E 001°31'  
Track history (hours):
 
Tides and Currents Weather Stations Pressure Air Temp Water Temp Dewpoint Dewpoint Depression Visibility Wind Speed Wind Dir Waves Ship Positions

European Seaway

Operator: P & O Ferries

Last reported at 2016-Jun-29 14:33 UTC. Time now 2016-Jun-29 14:44 UTC.
Position N 50°58' E 001°51'.

Length 179 m; draft 6.1 m.

Type: Passenger vessel. MMSI: 232001040.

Date/timePositionNaut miles runAvg speedWind from/ knotsBaromVisibWave heightAir tempDewpointWater temp
2016-Jun-29 14:33N 50°58' E 001°51'6 5.9
2016-Jun-29 13:33N 50°58' E 001°42'1616.2
2016-Jun-29 12:33N 51°07' E 001°20'0 0.0
2016-Jun-29 11:33N 51°07' E 001°20'1515.0
2016-Jun-29 10:34N 50°60' E 001°40'7 7.3
2016-Jun-29 09:33N 50°58' E 001°52'0 0.0
2016-Jun-29 08:34N 50°58' E 001°52'0 0.0
2016-Jun-29 07:33N 50°58' E 001°52'0 0.0
2016-Jun-29 06:33N 50°58' E 001°52'0 0.0
2016-Jun-29 05:33N 50°58' E 001°52'0 0.0
2016-Jun-29 04:33N 50°58' E 001°52'0 0.0
2016-Jun-29 03:33N 50°58' E 001°52'0 0.0
2016-Jun-29 02:33N 50°58' E 001°52'0 0.0
2016-Jun-29 01:33N 50°58' E 001°52'0 0.0
2016-Jun-29 00:33N 50°58' E 001°52'0 0.0
2016-Jun-28 23:33N 50°58' E 001°52'0 0.0
2016-Jun-28 22:33N 50°58' E 001°52'0 0.0
2016-Jun-28 21:33N 50°58' E 001°52'0 0.0
2016-Jun-28 20:33N 50°58' E 001°52'0 0.0
2016-Jun-28 19:33N 50°58' E 001°52'0 0.0
2016-Jun-28 18:33N 50°58' E 001°52'0 0.0
2016-Jun-28 17:33N 50°58' E 001°52'5 5.3
2016-Jun-28 16:34N 50°58' E 001°43'1717.0
2016-Jun-28 15:33N 51°07' E 001°20'0 0.2
2016-Jun-28 14:32N 51°07' E 001°20'1616.8
2016-Jun-28 13:33N 50°59' E 001°43'5 5.3
2016-Jun-28 12:33N 50°58' E 001°51'1111.4
2016-Jun-28 11:34N 51°01' E 001°33'1110.7
2016-Jun-28 10:33N 51°07' E 001°20'3 2.9
2016-Jun-28 09:34N 51°07' E 001°24'1818.0
2016-Jun-28 08:34N 50°58' E 001°50'21 1.2
2016-Jun-27 15:33N 51°07' E 001°20'0 0.2
2016-Jun-27 14:33N 51°07' E 001°20'1515.5
2016-Jun-27 13:34N 50°60' E 001°41'7 6.7
2016-Jun-27 12:33N 50°58' E 001°52'0 0.0
2016-Jun-27 11:34N 50°58' E 001°52'0 0.0
2016-Jun-27 10:34N 50°58' E 001°52'0 0.0
2016-Jun-27 09:33N 50°58' E 001°52'0 0.0
2016-Jun-27 08:33N 50°58' E 001°52'0 0.0
2016-Jun-27 07:33N 50°58' E 001°52'0 0.0
2016-Jun-27 06:34N 50°58' E 001°52'0 0.0
2016-Jun-27 05:33N 50°58' E 001°52'0 0.0
2016-Jun-27 04:33N 50°58' E 001°52'0 0.0
2016-Jun-27 03:33N 50°58' E 001°52'0 0.0
2016-Jun-27 02:33N 50°58' E 001°52'0 0.0
2016-Jun-27 01:34N 50°58' E 001°52'0 0.0
2016-Jun-27 00:33N 50°58' E 001°52'0 0.0
2016-Jun-26 23:34N 50°58' E 001°52'0 0.0
2016-Jun-26 22:34N 50°58' E 001°52'0 0.0
2016-Jun-26 21:34N 50°58' E 001°52'0 0.0
2016-Jun-26 20:34N 50°58' E 001°52'0 0.0
2016-Jun-26 19:33N 50°58' E 001°52'0 0.0
2016-Jun-26 18:34N 50°58' E 001°52'0 0.0
2016-Jun-26 17:34N 50°58' E 001°52'3 2.6
2016-Jun-26 16:34N 50°58' E 001°48'1918.9
2016-Jun-26 15:33N 51°07' E 001°21'1 0.7
2016-Jun-26 14:33N 51°07' E 001°20'1414.3
2016-Jun-26 13:33N 51°01' E 001°40'7 7.3
2016-Jun-26 12:33N 50°58' E 001°51'1 0.7
2016-Jun-26 11:33N 50°58' E 001°52'0 0.0
2016-Jun-26 10:33N 50°58' E 001°52'0 0.0
2016-Jun-26 09:33N 50°58' E 001°52'0 0.0
2016-Jun-26 08:33N 50°58' E 001°52'0 0.0
2016-Jun-26 07:33N 50°58' E 001°52'0 0.0
2016-Jun-26 06:33N 50°58' E 001°52'0 0.0
2016-Jun-26 05:33N 50°58' E 001°52'0 0.0
2016-Jun-26 04:33N 50°58' E 001°52'0 0.0
2016-Jun-26 03:33N 50°58' E 001°52'0 0.0
2016-Jun-26 02:33N 50°58' E 001°52'0 0.0
2016-Jun-26 01:33N 50°58' E 001°52'0 0.0
2016-Jun-26 00:33N 50°58' E 001°52'0 0.0
2016-Jun-25 23:33N 50°58' E 001°52'0 0.0
2016-Jun-25 22:33N 50°58' E 001°52'0 0.0
2016-Jun-25 21:33N 50°58' E 001°52'0 0.0
2016-Jun-25 20:33N 50°58' E 001°52'0 0.0
2016-Jun-25 19:33N 50°58' E 001°52'0 0.0
2016-Jun-25 18:33N 50°58' E 001°52'0 0.0
2016-Jun-25 17:33N 50°58' E 001°52'2 2.5
2016-Jun-25 16:33N 50°58' E 001°48'1918.7
2016-Jun-25 15:33N 51°07' E 001°22'1 1.0
2016-Jun-25 14:33N 51°07' E 001°20'1716.7
2016-Jun-25 13:33N 50°59' E 001°43'5 4.9
2016-Jun-25 12:33N 50°58' E 001°51'9 8.7
2016-Jun-25 11:33N 50°60' E 001°37'1313.3
2016-Jun-25 10:33N 51°07' E 001°20'1 0.5
2016-Jun-25 09:33N 51°07' E 001°21'1818.0
2016-Jun-25 08:34N 50°58' E 001°45'4 4.0
2016-Jun-25 07:33N 50°58' E 001°52'0 0.0
2016-Jun-25 06:33N 50°58' E 001°52'0 0.0
2016-Jun-25 05:33N 50°58' E 001°52'0 0.0
2016-Jun-25 04:34N 50°58' E 001°52'0 0.0
2016-Jun-25 03:34N 50°58' E 001°52'0 0.0
2016-Jun-25 02:34N 50°58' E 001°52'0 0.0
2016-Jun-25 01:34N 50°58' E 001°52'0 0.0
2016-Jun-25 00:33N 50°58' E 001°52'0 0.0
2016-Jun-24 23:33N 50°58' E 001°52'0 0.0
2016-Jun-24 22:33N 50°58' E 001°52'0 0.0
2016-Jun-24 21:33N 50°58' E 001°52'0 0.0
2016-Jun-24 20:33N 50°58' E 001°52'0 0.0
2016-Jun-24 19:33N 50°58' E 001°52'0 0.0
2016-Jun-24 18:33N 50°58' E 001°52'0 0.0
2016-Jun-24 17:34N 50°58' E 001°52'1 1.0
2016-Jun-24 16:33N 50°58' E 001°50'1817.8
2016-Jun-24 15:33N 51°05' E 001°24'3 3.2
2016-Jun-24 14:32N 51°07' E 001°20'1313.1
2016-Jun-24 13:33N 51°01' E 001°37'9 9.1
2016-Jun-24 12:33N 50°58' E 001°51'9 9.2
2016-Jun-24 11:33N 50°58' E 001°36'1413.8
2016-Jun-24 10:33N 51°07' E 001°20'2 1.7
2016-Jun-24 09:33N 51°07' E 001°23'1818.3
2016-Jun-24 08:33N 50°58' E 001°48'2 1.9
2016-Jun-24 07:29N 50°58' E 001°52'0 0.0
2016-Jun-24 04:31N 50°58' E 001°52'0 0.0
2016-Jun-24 03:31N 50°58' E 001°52'0 0.0
2016-Jun-24 02:28N 50°58' E 001°52'0 0.0
2016-Jun-24 01:31N 50°58' E 001°52'0 0.0
2016-Jun-24 00:28N 50°58' E 001°52'0 0.0
2016-Jun-23 23:31N 50°58' E 001°52'0 0.0
2016-Jun-23 22:31N 50°58' E 001°52'0 0.0
2016-Jun-23 21:31N 50°58' E 001°52'0 0.0
2016-Jun-23 20:28N 50°58' E 001°52'0 0.0
2016-Jun-23 19:32N 50°58' E 001°52'0 0.0
2016-Jun-23 18:31N 50°58' E 001°52'0 0.0
2016-Jun-23 17:33N 50°58' E 001°52'9 9.1
2016-Jun-23 16:34N 50°60' E 001°38'1313.3
2016-Jun-23 15:33N 51°07' E 001°20'3 3.1
2016-Jun-23 14:34N 51°07' E 001°25'1616.4
2016-Jun-23 13:33N 50°58' E 001°47'2 2.4
2016-Jun-23 12:33N 50°58' E 001°51'7 7.5
2016-Jun-23 11:33N 50°59' E 001°39'1514.5
2016-Jun-23 10:33N 51°07' E 001°20'5 5.1
2016-Jun-23 09:33N 51°05' E 001°27'1616.4
2016-Jun-23 08:34N 50°58' E 001°51'0 0.4
2016-Jun-23 07:31N 50°58' E 001°52'0 0.0
2016-Jun-23 05:31N 50°58' E 001°52'0 0.0
2016-Jun-23 04:25N 50°58' E 001°52'0 0.0
2016-Jun-23 03:31N 50°58' E 001°52'0 0.0
2016-Jun-23 02:31N 50°58' E 001°52'0 0.0
2016-Jun-23 01:31N 50°58' E 001°52'0 0.0
2016-Jun-23 00:28N 50°58' E 001°52'0 0.0
2016-Jun-22 23:31N 50°58' E 001°52'0 0.0
2016-Jun-22 22:31N 50°58' E 001°52'0 0.0
2016-Jun-22 21:34N 50°58' E 001°52'0 0.0
2016-Jun-22 20:33N 50°58' E 001°52'22 5.3
2016-Jun-22 16:26N 51°07' E 001°20'1314.3
2016-Jun-22 15:33N 51°00' E 001°37'13 0.4
2016-Jun-21 10:33N 51°07' E 001°20'3 3.3
2016-Jun-21 09:33N 51°06' E 001°25'1817.8
2016-Jun-21 08:33N 50°58' E 001°50'1 0.8
2016-Jun-21 07:33N 50°58' E 001°52'0 0.0
2016-Jun-21 05:33N 50°58' E 001°52'0 0.0
2016-Jun-21 04:33N 50°58' E 001°52'0 0.0
2016-Jun-21 03:33N 50°58' E 001°52'0 0.0
2016-Jun-21 02:33N 50°58' E 001°52'0 0.0
2016-Jun-21 01:33N 50°58' E 001°52'0 0.0
2016-Jun-21 00:33N 50°58' E 001°52'0 0.0
2016-Jun-20 23:33N 50°58' E 001°52'0 0.0
2016-Jun-20 22:33N 50°58' E 001°52'0 0.0
2016-Jun-20 21:33N 50°58' E 001°52'0 0.0
2016-Jun-20 20:33N 50°58' E 001°52'0 0.0
2016-Jun-20 19:33N 50°58' E 001°52'0 0.0
2016-Jun-20 18:33N 50°58' E 001°52'1 0.1
2016-Jun-20 08:20N 50°58' E 001°51'1 0.7
2016-Jun-20 07:34N 50°58' E 001°52'0 0.1
2016-Jun-20 06:33N 50°58' E 001°52'0 0.0
2016-Jun-20 05:33N 50°58' E 001°52'0 0.0
2016-Jun-20 04:33N 50°58' E 001°52'0 0.0
2016-Jun-20 03:34N 50°58' E 001°52'0 0.0
2016-Jun-20 02:34N 50°58' E 001°52'0 0.0
2016-Jun-20 01:34N 50°58' E 001°52'0 0.0
2016-Jun-20 00:34N 50°58' E 001°52'0 0.0
2016-Jun-19 23:33N 50°58' E 001°52'0 0.0
2016-Jun-19 22:33N 50°58' E 001°52'0 0.0
2016-Jun-19 21:33N 50°58' E 001°52'0 0.0
2016-Jun-19 20:34N 50°58' E 001°52'0 0.0
2016-Jun-19 19:34N 50°58' E 001°52'0 0.0
2016-Jun-19 18:34N 50°58' E 001°52'0 0.0
2016-Jun-19 17:34N 50°58' E 001°52'0 0.1
2016-Jun-19 16:33N 50°58' E 001°52'1413.8
2016-Jun-19 15:34N 51°02' E 001°31'  

Dump ship's entire track history